createdAt,value
2023-02-15T00:00:02.830Z,99034.22
2023-02-15T00:02:29.438Z,99040.63
2023-02-15T00:04:56.075Z,99039.91
2023-02-15T00:07:22.680Z,99030.81
2023-02-15T00:09:49.425Z,99030.16
2023-02-15T00:12:16.172Z,99027.47
2023-02-15T00:14:42.865Z,99021.66
2023-02-15T00:17:09.478Z,99031.84
2023-02-15T00:19:36.122Z,99021.19
2023-02-15T00:22:02.806Z,99018.72
2023-02-15T00:24:29.449Z,99021.97
2023-02-15T00:26:56.362Z,99029.09
2023-02-15T00:29:23.064Z,99025.97
2023-02-15T00:31:49.782Z,99018.16
2023-02-15T00:34:16.518Z,99029.53
2023-02-15T00:36:43.165Z,99027.06
2023-02-15T00:39:09.781Z,99021.94
2023-02-15T00:41:36.420Z,99032.19
2023-02-15T00:44:03.132Z,99026.41
2023-02-15T00:46:29.760Z,99016.47
2023-02-15T00:48:56.460Z,99021.69
2023-02-15T00:51:23.105Z,99027.31
2023-02-15T00:53:49.767Z,99025.59
2023-02-15T00:56:16.447Z,99020.16
2023-02-15T00:58:43.075Z,99016.63
2023-02-15T01:01:09.739Z,99015.66
2023-02-15T01:03:36.465Z,99010.91
2023-02-15T01:06:03.456Z,99007.00
2023-02-15T01:08:30.257Z,99009.16
2023-02-15T01:10:56.854Z,98999.31
2023-02-15T01:13:23.543Z,98993.75
2023-02-15T01:15:50.283Z,98998.88
2023-02-15T01:18:16.959Z,99001.09
2023-02-15T01:20:43.586Z,98998.34
2023-02-15T01:23:10.245Z,99001.31
2023-02-15T01:25:36.871Z,98996.78
2023-02-15T01:28:03.508Z,98992.16
2023-02-15T01:30:30.173Z,98991.81
2023-02-15T01:32:56.856Z,98987.09
2023-02-15T01:35:23.515Z,98984.03
2023-02-15T01:37:50.164Z,98984.50
2023-02-15T01:40:16.825Z,98986.25
2023-02-15T01:42:43.499Z,98978.09
2023-02-15T01:45:10.193Z,98975.00
2023-02-15T01:47:36.874Z,98979.28
2023-02-15T01:50:03.603Z,98973.44
2023-02-15T01:52:30.236Z,98970.63
2023-02-15T01:54:56.953Z,98958.41
2023-02-15T01:57:23.700Z,98952.25
2023-02-15T01:59:50.405Z,98956.03
2023-02-15T02:02:17.085Z,98959.94
2023-02-15T02:04:43.750Z,98945.84
2023-02-15T02:07:10.483Z,98944.28
2023-02-15T02:09:37.142Z,98936.09
2023-02-15T02:12:03.825Z,98933.59
2023-02-15T02:14:30.593Z,98938.00
2023-02-15T02:16:57.201Z,98930.31
2023-02-15T02:19:23.849Z,98935.38
2023-02-15T02:21:50.514Z,98932.78
2023-02-15T02:24:17.190Z,98929.94
2023-02-15T02:26:43.787Z,98934.56
2023-02-15T02:29:10.376Z,98926.75
2023-02-15T02:31:37.154Z,98928.16
2023-02-15T02:34:03.884Z,98930.41
2023-02-15T02:36:30.557Z,98927.94
2023-02-15T02:38:57.224Z,98926.97
2023-02-15T02:41:23.850Z,98929.84
2023-02-15T02:43:50.490Z,98923.53
2023-02-15T02:46:17.184Z,98928.28
2023-02-15T02:48:43.835Z,98923.53
2023-02-15T02:51:10.486Z,98920.69
2023-02-15T02:53:37.124Z,98919.72
2023-02-15T02:56:03.857Z,98912.16
2023-02-15T02:58:30.660Z,98914.41
2023-02-15T03:00:57.266Z,98907.50
2023-02-15T03:03:23.904Z,98914.50
2023-02-15T03:05:50.553Z,98912.88
2023-02-15T03:08:17.209Z,98911.81
2023-02-15T03:10:43.858Z,98910.69
2023-02-15T03:13:10.494Z,98901.94
2023-02-15T03:15:37.133Z,98909.78
2023-02-15T03:18:03.780Z,98907.25
2023-02-15T03:20:30.418Z,98905.97
2023-02-15T03:22:57.083Z,98912.38
2023-02-15T03:25:23.796Z,98913.22
2023-02-15T03:27:50.417Z,98914.16
2023-02-15T03:30:17.127Z,98917.84
2023-02-15T03:32:43.756Z,98913.09
2023-02-15T03:35:10.389Z,98916.31
2023-02-15T03:37:36.990Z,98911.19
2023-02-15T03:40:03.659Z,98913.69
2023-02-15T03:42:30.319Z,98905.84
2023-02-15T03:44:56.971Z,98912.38
2023-02-15T03:47:23.749Z,98910.94
2023-02-15T03:49:53.436Z,98913.19
2023-02-15T03:52:20.124Z,98911.06
2023-02-15T03:54:46.769Z,98908.06
2023-02-15T03:57:13.374Z,98909.28
2023-02-15T03:59:40.090Z,98910.44
2023-02-15T04:02:06.755Z,98920.31
2023-02-15T04:04:33.418Z,98907.41
2023-02-15T04:07:00.109Z,98905.72
2023-02-15T04:09:26.746Z,98909.75
2023-02-15T04:11:53.445Z,98902.03
2023-02-15T04:14:20.125Z,98907.16
2023-02-15T04:16:46.882Z,98904.88
2023-02-15T04:19:13.520Z,98898.34
2023-02-15T04:21:40.186Z,98902.38
2023-02-15T04:24:06.826Z,98905.94
2023-02-15T04:26:33.505Z,98903.22
2023-02-15T04:29:00.149Z,98910.69
2023-02-15T04:31:26.960Z,98902.84
2023-02-15T04:33:53.700Z,98902.53
2023-02-15T04:36:20.378Z,98896.72
2023-02-15T04:38:46.988Z,98900.72
2023-02-15T04:41:13.681Z,98904.31
2023-02-15T04:43:40.293Z,98901.31
2023-02-15T04:46:06.971Z,98898.09
2023-02-15T04:48:33.734Z,98896.06
2023-02-15T04:51:00.321Z,98896.78
2023-02-15T04:53:26.952Z,98897.53
2023-02-15T04:55:53.705Z,98887.16
2023-02-15T04:58:20.350Z,98895.41
2023-02-15T05:00:46.992Z,98896.81
2023-02-15T05:03:13.696Z,98891.47
2023-02-15T05:05:40.288Z,98896.72
2023-02-15T05:08:06.963Z,98891.50
2023-02-15T05:10:33.598Z,98886.50
2023-02-15T05:13:00.246Z,98895.41
2023-02-15T05:15:26.952Z,98887.44
2023-02-15T05:17:53.576Z,98886.50
2023-02-15T05:20:20.240Z,98889.09
2023-02-15T05:22:46.886Z,98889.22
2023-02-15T05:25:13.578Z,98890.19
2023-02-15T05:27:40.217Z,98888.97
2023-02-15T05:30:06.983Z,98882.13
2023-02-15T05:32:33.916Z,98887.94
2023-02-15T05:35:00.622Z,98886.38
2023-02-15T05:37:27.402Z,98882.72
2023-02-15T05:39:54.016Z,98883.53
2023-02-15T05:42:20.720Z,98882.13
2023-02-15T05:44:47.695Z,98883.28
2023-02-15T05:47:14.368Z,98884.00
2023-02-15T05:49:41.083Z,98876.56
2023-02-15T05:52:07.784Z,98886.63
2023-02-15T05:54:34.519Z,98880.81
2023-02-15T05:57:01.129Z,98887.59
2023-02-15T05:59:27.819Z,98892.47
2023-02-15T06:01:54.476Z,98884.41
2023-02-15T06:04:21.129Z,98884.25
2023-02-15T06:06:47.750Z,98892.91
2023-02-15T06:09:14.356Z,98892.47
2023-02-15T06:11:40.960Z,98891.25
2023-02-15T06:14:07.561Z,98895.31
2023-02-15T06:16:34.189Z,98894.34
2023-02-15T06:19:00.881Z,98896.72
2023-02-15T06:21:27.528Z,98899.09
2023-02-15T06:23:54.146Z,98906.69
2023-02-15T06:26:20.764Z,98905.59
2023-02-15T06:28:47.648Z,98909.53
2023-02-15T06:31:14.377Z,98917.59
2023-02-15T06:33:41.116Z,98910.50
2023-02-15T06:36:07.769Z,98912.50
2023-02-15T06:38:34.554Z,98910.34
2023-02-15T06:41:01.260Z,98915.47
2023-02-15T06:43:27.868Z,98922.25
2023-02-15T06:45:54.541Z,98927.31
2023-02-15T06:48:21.151Z,98920.91
2023-02-15T06:50:47.781Z,98928.03
2023-02-15T06:53:14.424Z,98926.84
2023-02-15T06:55:41.056Z,98929.44
2023-02-15T06:58:07.722Z,98924.22
2023-02-15T07:00:34.374Z,98919.59
2023-02-15T07:03:01.037Z,98921.72
2023-02-15T07:05:27.714Z,98911.41
2023-02-15T07:07:54.386Z,98916.38
2023-02-15T07:10:21.169Z,98920.03
2023-02-15T07:12:47.849Z,98915.00
2023-02-15T07:15:14.510Z,98912.38
2023-02-15T07:17:41.155Z,98907.63
2023-02-15T07:20:07.846Z,98918.66
2023-02-15T07:22:34.484Z,98910.91
2023-02-15T07:25:01.085Z,98906.44
2023-02-15T07:27:27.757Z,98908.06
2023-02-15T07:29:54.426Z,98905.16
2023-02-15T07:32:21.177Z,98905.00
2023-02-15T07:34:47.912Z,98906.50
2023-02-15T07:37:14.595Z,98906.75
2023-02-15T07:39:41.257Z,98909.00
2023-02-15T07:42:08.020Z,98904.34
2023-02-15T07:44:34.653Z,98897.81
2023-02-15T07:47:01.319Z,98895.94
2023-02-15T07:49:28.134Z,98905.16
2023-02-15T07:51:54.770Z,98898.09
2023-02-15T07:54:21.455Z,98890.53
2023-02-15T07:56:48.130Z,98888.84
2023-02-15T07:59:14.813Z,98897.88
2023-02-15T08:01:41.501Z,98892.22
2023-02-15T08:04:08.160Z,98894.03
2023-02-15T08:06:34.853Z,98902.63
2023-02-15T08:09:01.564Z,98898.91
2023-02-15T08:11:28.201Z,98893.81
2023-02-15T08:13:57.787Z,98889.81
2023-02-15T08:16:24.514Z,98889.13
2023-02-15T08:18:51.158Z,98890.31
2023-02-15T08:21:17.825Z,98885.84
2023-02-15T08:23:44.517Z,98876.66
2023-02-15T08:26:11.161Z,98884.19
2023-02-15T08:28:39.759Z,98892.28
2023-02-15T08:31:06.575Z,98879.41
2023-02-15T08:33:33.213Z,98881.16
2023-02-15T08:35:59.815Z,98879.84
2023-02-15T08:38:26.500Z,98887.16
2023-02-15T08:40:53.133Z,98891.22
2023-02-15T08:43:19.725Z,98885.84
2023-02-15T08:45:46.433Z,98889.16
2023-02-15T08:48:13.139Z,98892.84
2023-02-15T08:50:39.777Z,98884.66
2023-02-15T08:53:06.481Z,98891.38
2023-02-15T08:55:33.164Z,98884.97
2023-02-15T08:57:59.779Z,98885.84
2023-02-15T09:00:26.497Z,98884.50
2023-02-15T09:02:53.151Z,98889.94
2023-02-15T09:05:19.812Z,98879.03
2023-02-15T09:07:46.488Z,98882.56
2023-02-15T09:10:13.138Z,98885.84
2023-02-15T09:12:39.932Z,98880.38
2023-02-15T09:15:06.569Z,98880.22
2023-02-15T09:17:33.253Z,98872.72
2023-02-15T09:19:59.915Z,98876.44
2023-02-15T09:22:26.608Z,98880.78
2023-02-15T09:24:53.218Z,98883.41
2023-02-15T09:27:19.860Z,98875.44
2023-02-15T09:29:46.513Z,98876.16
2023-02-15T09:32:13.182Z,98869.03
2023-02-15T09:34:39.817Z,98865.50
2023-02-15T09:37:06.415Z,98865.97
2023-02-15T09:39:33.132Z,98860.78
2023-02-15T09:41:59.756Z,98871.94
2023-02-15T09:44:26.402Z,98868.72
2023-02-15T09:46:53.157Z,98869.91
2023-02-15T09:49:19.825Z,98867.72
2023-02-15T09:51:46.529Z,98868.41
2023-02-15T09:54:13.182Z,98862.56
2023-02-15T09:56:39.846Z,98871.28
2023-02-15T09:59:06.694Z,98864.31
2023-02-15T10:01:33.421Z,98871.13
2023-02-15T10:04:00.099Z,98864.59
2023-02-15T10:06:26.872Z,98860.28
2023-02-15T10:08:53.529Z,98857.63
2023-02-15T10:11:20.180Z,98856.84
2023-02-15T10:13:46.851Z,98857.28
2023-02-15T10:16:13.457Z,98855.63
2023-02-15T10:18:40.073Z,98852.50
2023-02-15T10:21:06.861Z,98845.50
2023-02-15T10:23:33.524Z,98846.03
2023-02-15T10:26:00.494Z,98841.84
2023-02-15T10:28:27.348Z,98838.75
2023-02-15T10:30:54.095Z,98839.91
2023-02-15T10:33:20.758Z,98835.66
2023-02-15T10:35:47.416Z,98833.22
2023-02-15T10:38:14.062Z,98834.69
2023-02-15T10:40:40.692Z,98836.56
2023-02-15T10:43:07.376Z,98822.59
2023-02-15T10:45:33.990Z,98822.91
2023-02-15T10:48:00.665Z,98808.38
2023-02-15T10:50:27.358Z,98810.09
2023-02-15T10:52:54.034Z,98807.81
2023-02-15T10:55:20.697Z,98810.13
2023-02-15T10:57:47.367Z,98797.94
2023-02-15T11:00:14.041Z,98796.25
2023-02-15T11:02:40.727Z,98785.53
2023-02-15T11:05:08.492Z,98790.91
2023-02-15T11:07:35.136Z,98794.09
2023-02-15T11:10:01.804Z,98791.88
2023-02-15T11:12:28.441Z,98782.59
2023-02-15T11:14:55.109Z,98769.50
2023-02-15T11:17:21.718Z,98774.19
2023-02-15T11:19:48.379Z,98776.53
2023-02-15T11:22:17.098Z,98773.78
2023-02-15T11:24:44.439Z,98760.03
2023-02-15T11:27:11.184Z,98753.78
2023-02-15T11:29:37.831Z,98748.00
2023-02-15T11:32:04.579Z,98751.94
2023-02-15T11:34:31.628Z,98748.22
2023-02-15T11:36:58.334Z,98742.22
2023-02-15T11:39:24.941Z,98744.47
2023-02-15T11:41:51.696Z,98740.19
2023-02-15T11:44:18.492Z,98732.84
2023-02-15T11:46:45.242Z,98731.41
2023-02-15T11:49:12.047Z,98723.38
2023-02-15T11:51:38.713Z,98729.59
2023-02-15T11:54:05.325Z,98727.31
2023-02-15T11:56:32.017Z,98720.94
2023-02-15T11:58:58.787Z,98718.72
2023-02-15T12:01:25.396Z,98708.03
2023-02-15T12:03:52.134Z,98703.75
2023-02-15T12:06:18.884Z,98705.03
2023-02-15T12:08:45.517Z,98704.56
2023-02-15T12:11:12.145Z,98705.56
2023-02-15T12:13:40.720Z,98691.28
2023-02-15T12:16:08.764Z,98694.50
2023-02-15T12:18:36.659Z,98687.00
2023-02-15T12:21:03.542Z,98686.25
2023-02-15T12:23:30.332Z,98680.53
2023-02-15T12:25:56.979Z,98683.88
2023-02-15T12:28:23.654Z,98675.38
2023-02-15T12:30:50.365Z,98677.63
2023-02-15T12:33:17.076Z,98682.59
2023-02-15T12:35:43.683Z,98674.91
2023-02-15T12:38:10.284Z,98671.22
2023-02-15T12:40:36.923Z,98677.78
2023-02-15T12:43:09.029Z,98666.28
2023-02-15T12:45:35.909Z,98669.19
2023-02-15T12:48:02.533Z,98669.47
2023-02-15T12:50:34.528Z,98667.94
2023-02-15T12:53:01.562Z,98673.50
2023-02-15T12:55:28.307Z,98668.31
2023-02-15T12:57:54.963Z,98671.47
2023-02-15T13:00:21.605Z,98672.94
2023-02-15T13:02:48.714Z,98671.56
2023-02-15T13:05:15.423Z,98668.75
2023-02-15T13:07:42.169Z,98671.31
2023-02-15T13:10:08.839Z,98661.75
2023-02-15T13:12:35.596Z,98660.69
2023-02-15T13:15:02.246Z,98655.75
2023-02-15T13:17:29.051Z,98659.28
2023-02-15T13:19:55.789Z,98648.72
2023-02-15T13:22:22.458Z,98651.59
2023-02-15T13:24:49.168Z,98650.31
2023-02-15T13:27:16.317Z,98644.34
2023-02-15T13:29:43.067Z,98645.16
2023-02-15T13:32:09.746Z,98641.97
2023-02-15T13:34:36.500Z,98636.13
2023-02-15T13:37:03.244Z,98636.94
2023-02-15T13:39:30.060Z,98626.09
2023-02-15T13:41:56.738Z,98624.06
2023-02-15T13:44:23.443Z,98635.13
2023-02-15T13:46:50.644Z,98629.28
2023-02-15T13:49:17.443Z,98618.31
2023-02-15T13:51:44.127Z,98618.50
2023-02-15T13:54:10.796Z,98623.69
2023-02-15T13:56:37.479Z,98630.59
2023-02-15T13:59:04.116Z,98630.13
2023-02-15T14:01:30.817Z,98632.16
2023-02-15T14:03:57.794Z,98632.16
2023-02-15T14:06:24.530Z,98630.09
2023-02-15T14:08:51.172Z,98626.94
2023-02-15T14:11:17.785Z,98636.34
2023-02-15T14:13:44.437Z,98634.03
2023-02-15T14:16:11.095Z,98632.13
2023-02-15T14:18:37.731Z,98629.84
2023-02-15T14:21:04.748Z,98639.44
2023-02-15T14:23:31.513Z,98634.19
2023-02-15T14:25:58.258Z,98642.41
2023-02-15T14:28:24.884Z,98638.75
2023-02-15T14:30:51.816Z,98645.41
2023-02-15T14:33:18.496Z,98641.22
2023-02-15T14:35:45.179Z,98634.53
2023-02-15T14:38:14.910Z,98634.28
2023-02-15T14:40:41.636Z,98636.69
2023-02-15T14:43:08.323Z,98634.78
2023-02-15T14:45:35.126Z,98630.16
2023-02-15T14:48:01.842Z,98629.19
2023-02-15T14:50:28.924Z,98634.50
2023-02-15T14:52:55.626Z,98631.31
2023-02-15T14:55:22.281Z,98630.53
2023-02-15T14:57:48.888Z,98627.16
2023-02-15T15:00:15.474Z,98609.75
2023-02-15T15:02:42.162Z,98621.13
2023-02-15T15:05:08.841Z,98618.84
2023-02-15T15:07:35.477Z,98631.34
2023-02-15T15:10:02.184Z,98631.81
2023-02-15T15:12:28.883Z,98631.84
2023-02-15T15:14:55.660Z,98636.44
2023-02-15T15:17:22.326Z,98628.63
2023-02-15T15:19:52.888Z,98629.50
2023-02-15T15:22:19.633Z,98618.88
2023-02-15T15:24:46.276Z,98631.63
2023-02-15T15:27:12.950Z,98623.50
2023-02-15T15:29:39.565Z,98621.69
2023-02-15T15:32:06.325Z,98618.28
2023-02-15T15:34:33.073Z,98612.88
2023-02-15T15:36:59.765Z,98615.94
2023-02-15T15:39:26.393Z,98617.50
2023-02-15T15:41:53.053Z,98608.44
2023-02-15T15:44:19.674Z,98615.69
2023-02-15T15:46:46.410Z,98618.56
2023-02-15T15:49:13.216Z,98609.06
2023-02-15T15:51:39.888Z,98610.53
2023-02-15T15:54:06.534Z,98614.56
2023-02-15T15:56:33.263Z,98609.19
2023-02-15T15:58:59.938Z,98599.03
2023-02-15T16:01:26.654Z,98603.59
2023-02-15T16:03:53.331Z,98602.28
2023-02-15T16:06:19.968Z,98594.94
2023-02-15T16:08:46.585Z,98597.03
2023-02-15T16:11:13.238Z,98602.78
2023-02-15T16:13:39.943Z,98600.84
2023-02-15T16:16:06.894Z,98595.72
2023-02-15T16:18:33.658Z,98613.97
2023-02-15T16:21:00.324Z,98604.47
2023-02-15T16:23:26.986Z,98606.31
2023-02-15T16:25:53.670Z,98600.78
2023-02-15T16:28:20.321Z,98600.84
2023-02-15T16:30:47.007Z,98597.53
2023-02-15T16:33:13.638Z,98602.13
2023-02-15T16:35:40.312Z,98597.63
2023-02-15T16:38:06.922Z,98604.00
2023-02-15T16:40:33.554Z,98605.53
2023-02-15T16:43:00.174Z,98606.94
2023-02-15T16:45:26.871Z,98611.34
2023-02-15T16:47:53.580Z,98609.84
2023-02-15T16:50:20.260Z,98603.78
2023-02-15T16:52:46.974Z,98603.94
2023-02-15T16:55:13.605Z,98612.84
2023-02-15T16:57:40.244Z,98606.25
2023-02-15T17:00:06.946Z,98614.78
2023-02-15T17:02:54.555Z,98617.94
2023-02-15T17:05:20.181Z,98616.66
2023-02-15T17:07:46.809Z,98615.97
2023-02-15T17:10:13.407Z,98625.44
2023-02-15T17:12:40.083Z,98624.34
2023-02-15T17:15:06.756Z,98619.09
2023-02-15T17:17:33.447Z,98622.81
2023-02-15T17:20:00.077Z,98622.16
2023-02-15T17:22:26.774Z,98627.50
2023-02-15T17:24:53.422Z,98630.63
2023-02-15T17:27:20.380Z,98630.63
2023-02-15T17:29:47.035Z,98635.25
2023-02-15T17:32:14.081Z,98629.03
2023-02-15T17:34:40.770Z,98632.94
2023-02-15T17:37:07.437Z,98634.84
2023-02-15T17:39:34.175Z,98635.78
2023-02-15T17:42:00.848Z,98626.16
2023-02-15T17:44:27.539Z,98630.63
2023-02-15T17:46:54.207Z,98625.00
2023-02-15T17:49:20.910Z,98631.19
2023-02-15T17:51:47.571Z,98637.31
2023-02-15T17:54:14.275Z,98626.56
2023-02-15T17:56:40.892Z,98629.16
2023-02-15T17:59:07.540Z,98627.13
2023-02-15T18:01:34.260Z,98622.91
2023-02-15T18:04:01.021Z,98626.75
2023-02-15T18:06:27.694Z,98623.31
2023-02-15T18:08:54.349Z,98621.94
2023-02-15T18:11:21.068Z,98620.97
2023-02-15T18:13:47.908Z,98621.94
2023-02-15T18:16:14.546Z,98625.63
2023-02-15T18:18:41.269Z,98630.84
2023-02-15T18:21:07.937Z,98627.50
2023-02-15T18:23:34.609Z,98627.69
2023-02-15T18:26:01.286Z,98628.03
2023-02-15T18:28:27.942Z,98631.34
2023-02-15T18:30:54.600Z,98635.28
2023-02-15T18:33:21.294Z,98626.16
2023-02-15T18:35:47.944Z,98627.22
2023-02-15T18:38:14.565Z,98626.56
2023-02-15T18:40:41.265Z,98630.59
2023-02-15T18:43:07.866Z,98627.66
2023-02-15T18:45:34.563Z,98631.81
2023-02-15T18:48:01.242Z,98624.34
2023-02-15T18:50:27.865Z,98628.72
2023-02-15T18:52:54.568Z,98633.72
2023-02-15T18:55:21.268Z,98625.09
2023-02-15T18:57:47.910Z,98628.88
2023-02-15T19:00:14.846Z,98623.66
2023-02-15T19:02:41.611Z,98630.78
2023-02-15T19:05:11.435Z,98633.16
2023-02-15T19:07:38.039Z,98632.66
2023-02-15T19:10:04.697Z,98636.22
2023-02-15T19:12:31.347Z,98629.00
2023-02-15T19:14:57.987Z,98632.22
2023-02-15T19:17:28.699Z,98634.09
2023-02-15T19:19:55.351Z,98636.47
2023-02-15T19:22:21.980Z,98630.69
2023-02-15T19:24:48.651Z,98632.56
2023-02-15T19:27:15.373Z,98629.84
2023-02-15T19:29:42.033Z,98629.38
2023-02-15T19:32:11.727Z,98629.13
2023-02-15T19:34:38.477Z,98624.75
2023-02-15T19:37:05.132Z,98621.56
2023-02-15T19:39:31.807Z,98625.34
2023-02-15T19:41:58.406Z,98621.91
2023-02-15T19:44:25.056Z,98619.44
2023-02-15T19:46:51.704Z,98621.81
2023-02-15T19:49:18.352Z,98619.91
2023-02-15T19:51:45.029Z,98622.69
2023-02-15T19:54:11.627Z,98614.78
2023-02-15T19:56:38.330Z,98628.94
2023-02-15T19:59:05.096Z,98625.56
2023-02-15T20:01:31.883Z,98627.47
2023-02-15T20:03:58.588Z,98623.47
2023-02-15T20:06:25.248Z,98621.53
2023-02-15T20:08:51.925Z,98626.38
2023-02-15T20:11:18.569Z,98625.69
2023-02-15T20:13:45.220Z,98627.50
2023-02-15T20:16:11.915Z,98629.28
2023-02-15T20:18:38.557Z,98626.78
2023-02-15T20:21:05.531Z,98625.63
2023-02-15T20:23:32.374Z,98617.91
2023-02-15T20:25:59.025Z,98622.72
2023-02-15T20:28:25.660Z,98623.94
2023-02-15T20:30:52.376Z,98612.19
2023-02-15T20:33:19.094Z,98613.13
2023-02-15T20:35:45.760Z,98614.28
2023-02-15T20:38:12.492Z,98616.06
2023-02-15T20:40:39.246Z,98616.09
2023-02-15T20:43:05.891Z,98619.06
2023-02-15T20:45:32.580Z,98612.56
2023-02-15T20:47:59.310Z,98608.03
2023-02-15T20:50:26.026Z,98601.75
2023-02-15T20:52:52.663Z,98601.28
2023-02-15T20:55:19.348Z,98587.56
2023-02-15T20:57:46.021Z,98589.97
2023-02-15T21:00:12.674Z,98592.66
2023-02-15T21:02:39.353Z,98596.13
2023-02-15T21:05:05.998Z,98586.78
2023-02-15T21:07:32.637Z,98585.69
2023-02-15T21:09:59.337Z,98583.81
2023-02-15T21:12:25.969Z,98591.34
2023-02-15T21:14:52.619Z,98582.06
2023-02-15T21:17:19.370Z,98580.03
2023-02-15T21:19:45.994Z,98579.22
2023-02-15T21:22:12.644Z,98569.44
2023-02-15T21:24:39.392Z,98565.78
2023-02-15T21:27:06.048Z,98564.34
2023-02-15T21:29:32.684Z,98563.28
2023-02-15T21:31:59.475Z,98564.47
2023-02-15T21:34:26.166Z,98563.06
2023-02-15T21:36:52.831Z,98563.78
2023-02-15T21:39:19.446Z,98561.69
2023-02-15T21:41:46.904Z,98561.75
2023-02-15T21:44:13.577Z,98557.50
2023-02-15T21:46:40.464Z,98560.19
2023-02-15T21:49:07.139Z,98558.69
2023-02-15T21:51:33.810Z,98569.09
2023-02-15T21:54:00.450Z,98555.13
2023-02-15T21:56:27.077Z,98562.53
2023-02-15T21:58:53.692Z,98561.59
2023-02-15T22:01:20.441Z,98553.44
2023-02-15T22:03:47.187Z,98548.03
2023-02-15T22:06:13.864Z,98552.25
2023-02-15T22:08:40.566Z,98551.50
2023-02-15T22:11:07.194Z,98554.84
2023-02-15T22:13:33.876Z,98552.72
2023-02-15T22:16:00.610Z,98550.66
2023-02-15T22:18:27.340Z,98539.94
2023-02-15T22:20:54.015Z,98545.75
2023-02-15T22:23:20.685Z,98549.72
2023-02-15T22:25:47.489Z,98547.25
2023-02-15T22:28:14.080Z,98541.59
2023-02-15T22:30:40.750Z,98541.25
2023-02-15T22:33:08.895Z,98545.69
2023-02-15T22:35:37.117Z,98551.88
2023-02-15T22:38:03.762Z,98547.34
2023-02-15T22:40:30.406Z,98539.41
2023-02-15T22:42:57.096Z,98535.66
2023-02-15T22:45:23.736Z,98537.16
2023-02-15T22:47:50.384Z,98543.91
2023-02-15T22:50:17.029Z,98546.03
2023-02-15T22:52:43.947Z,98555.66
2023-02-15T22:55:10.580Z,98556.97
2023-02-15T22:57:37.177Z,98551.66
2023-02-15T23:00:03.879Z,98547.34
2023-02-15T23:02:30.620Z,98553.59
2023-02-15T23:04:57.308Z,98547.28
2023-02-15T23:07:24.003Z,98546.81
2023-02-15T23:09:50.653Z,98540.84
2023-02-15T23:12:17.381Z,98549.63
2023-02-15T23:14:44.088Z,98533.38
2023-02-15T23:17:10.783Z,98542.94
2023-02-15T23:19:37.434Z,98542.34
2023-02-15T23:22:04.030Z,98539.06
2023-02-15T23:24:30.766Z,98538.59
2023-02-15T23:26:57.404Z,98534.16
2023-02-15T23:29:24.075Z,98540.91
2023-02-15T23:31:50.840Z,98539.91
2023-02-15T23:34:17.579Z,98537.53
2023-02-15T23:36:44.197Z,98538.97
2023-02-15T23:39:10.822Z,98535.81
2023-02-15T23:41:37.489Z,98534.06
2023-02-15T23:44:04.163Z,98525.53
2023-02-15T23:46:30.798Z,98526.84
2023-02-15T23:48:57.490Z,98528.56
2023-02-15T23:51:24.137Z,98520.66
2023-02-15T23:53:50.799Z,98521.00
2023-02-15T23:56:17.476Z,98522.97
2023-02-15T23:58:44.125Z,98527.25
